Terminal Aerodrome Forecast
Issued by NWS

Home | Current Version | Previous Version | Text Only | Print | Product List | Glossary On
Versions: 1 2 3 4 5 6 7 8 9 10 11 12 13 14 15 16 17 18 19 20 21 22 23 24 25 26 27 28 29 30 31 32 33 34
000
FTAK31 PAFC 212345
TAFACD
TAF
PACD 212345Z 2200/2224 32015G23KT P6SM -SHSN FEW015 SCT025 BKN050
      TEMPO 2200/2204 3SM -SN SCT015 BKN025
     FM220400 31018G26KT 3SM -SHSN BKN025
      TEMPO 2204/2208 2SM -SN BLSN BKN015=

USA.gov is the U.S. government's official web portal to all federal, state and local government web resources and services.